Terminal Aerodrome Forecast
Issued by NWS St Louis, MO

Home | Current Version | Previous Version | Text Only | Print | Product List | Glossary On
Versions: 1 2 3 4 5 6 7 8 9 10 11 12 13 14 15 16 17
000
FTUS43 KLSX 262300
TAFSTL
TAF
KSTL 262320Z 2700/2806 18010KT P6SM BKN050
     FM270900 20008KT P6SM OVC015 PROB30 2710/2714 P6SM -RA
     FM271400 23010KT P6SM OVC015
     FM271600 28012KT P6SM OVC015
     FM272000 30010KT P6SM OVC040=

USA.gov is the U.S. government's official web portal to all federal, state and local government web resources and services.